Bonita Springs, Florida
Current Conditions -  °F | °C
As of 9:53 PM on Saturday 24 Jan 2015 (Local Time) from KRSW Reporting Station
Clear Clear  
Wind Chill: 58°   Ceiling: Unl
Heat Index: 58°   Visibility: 10mi
Dew Point: 49°   Wind: 5mph
Humidity: 72%   Direction: 340°NNW
Pressure: 30.05"   Gusts: NA
Location:  26.34°N, 81.78°W
Report Text: KRSW 250253Z 34004KT 10SM CLR 14/09 A3005 RMK AO2 SLP171 T01440094 51015
Loading
Personal Weather Stations






























Interactive Weather Map New forecast layout! Learn more

10-Day Weather Forecast

Advertisements
Track Severe Weather on mobile